Time;durP1;ratioP1;P1;durP2;ratioP2;P2;SDS_P1;SDS_P2;PMS_P1;PMS_P2;Temp;Humidity;BMP_temperature;BMP_pressure;BME280_temperature;BME280_humidity;BME280_pressure;Samples;Min_cycle;Max_cycle;Signal;HPM_P1;HPM_P2
2022/12/21 00:00:18;;;;;;;9.85;6.28;;;11.70;88.80;;;;;;5049169;28;20349;-61
2022/12/21 00:02:44;;;;;;;10.48;6.25;;;11.70;88.80;;;;;;5060068;28;20067;-61
2022/12/21 00:05:10;;;;;;;11.70;7.65;;;11.70;88.80;;;;;;5047079;28;20033;-60
2022/12/21 00:07:36;;;;;;;8.02;5.45;;;11.70;88.70;;;;;;5048930;28;20033;-61
2022/12/21 00:10:02;;;;;;;12.00;7.45;;;11.70;88.80;;;;;;5048304;28;20476;-58
2022/12/21 00:12:27;;;;;;;11.10;6.13;;;11.70;88.80;;;;;;5052730;28;20028;-59
2022/12/21 00:14:53;;;;;;;15.55;7.30;;;11.60;88.80;;;;;;5050478;28;20086;-58
2022/12/21 00:17:19;;;;;;;9.32;5.80;;;11.70;88.70;;;;;;5050973;28;20033;-58
2022/12/21 00:19:45;;;;;;;10.70;7.10;;;11.70;88.70;;;;;;5043738;28;20044;-58
2022/12/21 00:22:10;;;;;;;13.25;8.15;;;11.60;88.60;;;;;;5060808;28;20458;-59
2022/12/21 00:24:36;;;;;;;11.20;6.95;;;11.60;88.70;;;;;;5044560;28;20018;-59
2022/12/21 00:27:03;;;;;;;14.80;7.97;;;11.60;88.80;;;;;;5051639;28;20029;-58
2022/12/21 00:29:29;;;;;;;8.68;6.50;;;11.60;88.80;;;;;;5057217;28;20482;-58
2022/12/21 00:31:55;;;;;;;10.52;7.07;;;11.60;88.70;;;;;;5046607;28;20464;-59
2022/12/21 00:34:21;;;;;;;12.52;7.05;;;11.60;88.60;;;;;;5055672;28;20054;-58
2022/12/21 00:36:48;;;;;;;9.30;6.18;;;11.60;88.50;;;;;;5052942;28;20044;-58
2022/12/21 00:39:16;;;;;;;11.43;6.85;;;11.70;88.50;;;;;;5058902;28;20036;-59
2022/12/21 00:41:42;;;;;;;11.45;6.47;;;11.60;88.40;;;;;;5043509;28;20029;-58
2022/12/21 00:44:08;;;;;;;10.23;6.80;;;11.70;88.30;;;;;;5056038;28;20036;-61
2022/12/21 00:46:34;;;;;;;12.10;5.20;;;11.70;88.30;;;;;;5043841;28;20033;-61
2022/12/21 00:49:03;;;;;;;9.52;6.43;;;11.60;88.30;;;;;;5049926;28;20119;-61
2022/12/21 00:51:30;;;;;;;9.85;6.25;;;11.60;88.30;;;;;;5050266;28;20028;-61
2022/12/21 00:53:57;;;;;;;10.60;6.68;;;11.60;88.30;;;;;;5054166;28;20082;-61
2022/12/21 00:56:24;;;;;;;11.02;6.68;;;11.60;88.20;;;;;;5051391;28;20112;-61
2022/12/21 00:58:50;;;;;;;7.82;5.40;;;11.60;88.30;;;;;;5053157;28;20029;-60
2022/12/21 01:01:25;;;;;;;7.22;5.90;;;11.60;88.30;;;;;;5047855;28;20020;-60
2022/12/21 01:03:51;;;;;;;9.98;5.38;;;11.60;88.30;;;;;;5051676;28;20483;-57
2022/12/21 01:06:19;;;;;;;8.23;4.72;;;11.60;88.20;;;;;;5058397;28;20208;-58
2022/12/21 01:08:46;;;;;;;8.52;5.20;;;11.60;88.00;;;;;;5050466;28;20487;-58
2022/12/21 01:11:14;;;;;;;11.23;4.68;;;11.60;88.00;;;;;;5054267;28;20025;-58
2022/12/21 01:13:40;;;;;;;7.10;4.05;;;11.60;87.90;;;;;;5051844;28;20032;-59
2022/12/21 01:16:18;;;;;;;5.93;3.80;;;11.60;88.00;;;;;;5042938;28;20032;-58
2022/12/21 01:18:44;;;;;;;9.82;5.05;;;11.60;87.90;;;;;;5038440;28;20025;-59
2022/12/21 01:21:18;;;;;;;9.35;5.03;;;11.50;88.00;;;;;;5058009;28;20166;-57
2022/12/21 01:23:44;;;;;;;5.85;3.92;;;11.50;88.00;;;;;;5045537;28;20512;-58
2022/12/21 01:26:11;;;;;;;8.13;4.80;;;11.50;87.90;;;;;;5048900;28;20025;-60
2022/12/21 01:28:37;;;;;;;8.15;5.20;;;11.50;87.90;;;;;;5055809;28;20365;-60
2022/12/21 01:31:03;;;;;;;7.18;5.03;;;11.50;87.90;;;;;;5046868;28;20040;-58
2022/12/21 01:33:29;;;;;;;18.73;5.28;;;11.40;87.80;;;;;;5042711;28;20108;-58
2022/12/21 01:35:54;;;;;;;6.95;4.38;;;11.40;87.80;;;;;;5047032;28;20031;-58
2022/12/21 01:38:20;;;;;;;6.55;4.03;;;11.40;87.80;;;;;;5042753;28;20107;-58
2022/12/21 01:40:46;;;;;;;7.25;4.70;;;11.40;87.80;;;;;;5045099;28;20021;-58
2022/12/21 01:43:39;;;;;;;8.23;4.55;;;11.40;87.80;;;;;;5050982;28;20139;-59
2022/12/21 01:46:09;;;;;;;7.03;4.75;;;11.40;87.70;;;;;;5038569;28;20045;-58
2022/12/21 01:48:39;;;;;;;6.97;3.92;;;11.40;87.70;;;;;;5051512;28;20025;-61
2022/12/21 01:51:06;;;;;;;5.40;3.83;;;11.40;87.70;;;;;;5041516;28;20507;-61
2022/12/21 01:54:00;;;;;;;5.35;4.35;;;11.30;87.60;;;;;;5051117;28;20052;-61
2022/12/21 01:56:32;;;;;;;10.00;5.68;;;11.40;87.50;;;;;;5037096;28;20036;-61
2022/12/21 01:59:06;;;;;;;12.73;8.17;;;11.30;87.50;;;;;;5050246;28;20017;-58
2022/12/21 02:01:31;;;;;;;17.63;9.10;;;11.30;87.60;;;;;;5049786;28;20036;-61
2022/12/21 02:03:58;;;;;;;11.55;7.07;;;11.30;87.70;;;;;;5052433;28;20029;-60
2022/12/21 02:06:36;;;;;;;13.23;7.80;;;11.30;87.80;;;;;;5052731;28;20029;-58
2022/12/21 02:09:04;;;;;;;11.68;7.75;;;11.30;87.80;;;;;;5041320;28;20480;-58
2022/12/21 02:11:30;;;;;;;10.15;7.68;;;11.30;87.80;;;;;;5047493;28;20060;-61
2022/12/21 02:13:55;;;;;;;16.60;9.00;;;11.30;87.70;;;;;;5040669;28;20076;-60
2022/12/21 02:16:26;;;;;;;9.40;7.55;;;11.30;87.70;;;;;;5043933;28;20053;-61
2022/12/21 02:19:34;;;;;;;14.30;8.38;;;11.30;87.70;;;;;;5049609;28;20040;-58
2022/12/21 02:22:13;;;;;;;13.35;8.38;;;11.30;87.80;;;;;;5035801;28;20098;-58
2022/12/21 02:25:05;;;;;;;14.23;8.70;;;11.30;87.90;;;;;;5052258;28;20029;-58
2022/12/21 02:27:40;;;;;;;17.27;9.07;;;11.30;87.90;;;;;;5054097;28;20395;-58
2022/12/21 02:30:19;;;;;;;14.30;8.35;;;11.20;87.80;;;;;;5049700;28;20029;-58
2022/12/21 02:33:03;;;;;;;12.40;7.13;;;11.20;87.80;;;;;;5046443;28;20032;-57
2022/12/21 02:35:45;;;;;;;10.55;6.40;;;11.20;87.90;;;;;;5045453;28;20383;-58
2022/12/21 02:38:38;;;;;;;7.65;5.75;;;11.20;87.80;;;;;;5049021;28;20042;-58
2022/12/21 02:41:31;;;;;;;12.50;6.95;;;11.20;87.80;;;;;;5036580;28;20025;-58
2022/12/21 02:44:14;;;;;;;;;;;11.30;87.70;;;;;;5053650;28;20029;-58
2022/12/21 02:47:09;;;;;;;11.10;7.45;;;11.20;87.70;;;;;;5047992;28;19913;-58
2022/12/21 02:50:02;;;;;;;9.20;5.72;;;11.20;87.70;;;;;;5039761;28;20102;-58
2022/12/21 02:52:44;;;;;;;11.32;6.47;;;11.20;87.60;;;;;;5050270;28;20119;-58
2022/12/21 02:55:12;;;;;;;7.73;5.03;;;11.10;87.60;;;;;;5054451;28;20044;-59
2022/12/21 02:57:40;;;;;;;12.82;7.47;;;11.10;87.70;;;;;;5048427;28;20260;-58
2022/12/21 03:00:10;;;;;;;11.20;6.80;;;11.10;87.70;;;;;;5057420;28;20454;-58
2022/12/21 03:02:38;;;;;;;11.10;6.90;;;11.10;87.70;;;;;;5047382;28;20029;-61
2022/12/21 03:05:23;;;;;;;7.40;5.47;;;11.10;87.70;;;;;;5055531;28;20028;-60
2022/12/21 03:08:11;;;;;;;12.73;7.85;;;11.10;87.70;;;;;;5042106;28;20048;-58
2022/12/21 03:10:48;;;;;;;10.13;6.82;;;11.10;87.70;;;;;;5039127;28;20037;-58
2022/12/21 03:13:17;;;;;;;11.57;7.50;;;11.00;87.80;;;;;;5048373;28;20036;-58
2022/12/21 03:15:54;;;;;;;13.98;7.82;;;11.10;87.90;;;;;;5048855;28;20093;-58
2022/12/21 03:19:12;;;;;;;10.52;7.45;;;11.10;87.80;;;;;;5043162;28;20028;-61
2022/12/21 03:21:44;;;;;;;14.93;8.70;;;11.10;87.80;;;;;;5042777;28;20044;-61
2022/12/21 03:24:13;;;;;;;;;;;11.10;87.90;;;;;;5047610;28;20028;-61
2022/12/21 03:26:50;;;;;;;15.88;9.40;;;11.10;87.80;;;;;;5033925;28;19905;-58
2022/12/21 03:29:19;;;;;;;10.25;7.65;;;11.00;87.80;;;;;;5050230;28;20036;-59
2022/12/21 03:31:52;;;;;;;16.50;8.52;;;11.00;87.80;;;;;;5053744;28;20033;-58
2022/12/21 03:34:25;;;;;;;9.93;6.63;;;11.00;87.80;;;;;;5050913;28;20040;-58
2022/12/21 03:37:02;;;;;;;10.30;6.20;;;11.10;87.80;;;;;;5049704;28;20075;-60
2022/12/21 03:39:30;;;;;;;14.43;7.50;;;11.10;87.70;;;;;;5047281;28;20029;-60
2022/12/21 03:42:12;;;;;;;11.93;6.70;;;11.10;87.70;;;;;;5045354;28;20503;-60
2022/12/21 03:44:47;;;;;;;10.77;7.53;;;11.10;87.70;;;;;;5045995;28;20025;-58
2022/12/21 03:47:18;;;;;;;12.55;7.20;;;11.10;87.70;;;;;;5052308;28;20032;-61
2022/12/21 03:50:06;;;;;;;9.65;6.97;;;11.10;87.70;;;;;;5049484;28;20040;-61
2022/12/21 03:52:46;;;;;;;11.63;6.65;;;11.10;87.60;;;;;;5050688;28;20029;-61
2022/12/21 03:55:22;;;;;;;9.68;6.55;;;11.00;87.80;;;;;;5054147;28;20045;-60
2022/12/21 03:57:49;;;;;;;13.20;6.55;;;11.00;87.80;;;;;;5063299;28;20105;-61
2022/12/21 04:00:16;;;;;;;7.85;5.55;;;11.00;87.80;;;;;;5050259;28;20025;-58
2022/12/21 04:02:56;;;;;;;9.60;6.05;;;11.00;87.80;;;;;;5058103;28;20025;-59
2022/12/21 04:05:45;;;;;;;8.10;5.15;;;11.00;87.80;;;;;;5049034;28;20064;-58
2022/12/21 04:08:11;;;;;;;11.75;5.70;;;11.00;87.80;;;;;;5046103;28;20037;-60
2022/12/21 04:10:36;;;;;;;9.10;5.68;;;11.00;87.80;;;;;;5057333;28;20021;-60
2022/12/21 04:13:02;;;;;;;8.35;5.68;;;10.90;87.70;;;;;;5052016;28;20117;-60
2022/12/21 04:16:03;;;;;;;7.00;5.03;;;10.90;87.80;;;;;;5057701;28;20027;-60
2022/12/21 04:18:14;;;;;;;9.40;5.90;;;11.00;87.80;;;;;;5047108;28;20443;-58
2022/12/21 04:20:40;;;;;;;9.60;7.13;;;11.00;87.70;;;;;;5054191;28;20510;-58
2022/12/21 04:28:34;;;;;;;9.52;5.55;;;11.10;87.50;;;;;;5038675;28;20118;-58
2022/12/21 04:31:01;;;;;;;10.70;6.43;;;11.00;87.50;;;;;;5047031;28;20462;-58
2022/12/21 04:33:29;;;;;;;7.95;7.15;;;11.00;87.50;;;;;;5046617;28;20388;-58
2022/12/21 04:38:42;;;;;;;9.55;6.70;;;11.00;87.60;;;;;;5047717;28;20404;-60
2022/12/21 04:41:09;;;;;;;11.82;8.48;;;11.00;87.70;;;;;;5047349;28;20089;-60
2022/12/21 04:43:41;;;;;;;9.70;6.97;;;11.10;87.70;;;;;;5049544;28;20439;-60
2022/12/21 04:46:08;;;;;;;;;;;11.10;87.70;;;;;;5049816;28;20044;-60
2022/12/21 04:48:35;;;;;;;11.50;7.82;;;11.00;87.60;;;;;;5050542;28;20411;-60
2022/12/21 04:51:05;;;;;;;15.48;8.55;;;11.00;87.80;;;;;;5053171;28;20039;-58
2022/12/21 04:53:31;;;;;;;10.25;7.45;;;11.00;87.80;;;;;;5057494;28;20045;-58
2022/12/21 04:55:57;;;;;;;12.55;7.32;;;11.00;87.70;;;;;;5050079;28;20031;-58
2022/12/21 04:58:23;;;;;;;13.95;8.43;;;11.00;87.70;;;;;;5048953;28;20409;-60
2022/12/21 05:00:48;;;;;;;10.77;5.43;;;11.00;87.60;;;;;;5050863;28;20028;-58
2022/12/21 05:03:14;;;;;;;14.35;7.88;;;11.00;87.70;;;;;;5043642;28;20058;-61
2022/12/21 05:05:40;;;;;;;8.82;5.75;;;11.00;87.60;;;;;;5046484;28;20104;-61
2022/12/21 05:08:05;;;;;;;15.90;7.38;;;11.00;87.60;;;;;;5040397;28;20098;-60
2022/12/21 05:10:31;;;;;;;12.45;7.70;;;11.00;87.70;;;;;;5035971;28;20458;-60
2022/12/21 05:12:57;;;;;;;10.35;5.65;;;11.00;87.60;;;;;;5040270;28;20041;-60
2022/12/21 05:15:22;;;;;;;7.80;5.72;;;11.00;87.60;;;;;;5032996;28;20037;-60
2022/12/21 05:17:48;;;;;;;19.55;7.15;;;10.90;87.60;;;;;;5045094;28;20457;-60
2022/12/21 05:20:14;;;;;;;8.32;5.20;;;10.90;87.60;;;;;;5039652;28;20029;-60
2022/12/21 05:22:39;;;;;;;11.55;5.57;;;10.90;87.60;;;;;;5046621;28;20040;-58
2022/12/21 05:25:05;;;;;;;7.53;5.63;;;10.90;87.70;;;;;;5048184;28;20029;-60
2022/12/21 05:27:31;;;;;;;8.40;5.60;;;10.90;87.70;;;;;;5046498;28;20514;-60
2022/12/21 05:29:57;;;;;;;17.98;7.30;;;10.90;87.70;;;;;;5046053;28;20040;-59
2022/12/21 05:32:22;;;;;;;9.18;5.50;;;10.90;87.70;;;;;;5038401;28;20037;-58
2022/12/21 05:34:48;;;;;;;8.30;6.18;;;10.80;87.60;;;;;;5040044;28;20029;-61
2022/12/21 05:37:14;;;;;;;10.70;7.03;;;10.80;87.60;;;;;;5042942;28;20029;-61
2022/12/21 05:39:39;;;;;;;11.77;7.90;;;10.80;87.70;;;;;;5042926;28;20021;-61
2022/12/21 05:42:05;;;;;;;10.48;6.38;;;10.80;87.80;;;;;;5044298;28;20032;-61
2022/12/21 05:44:31;;;;;;;14.27;8.98;;;10.80;87.80;;;;;;5029629;28;20045;-61
2022/12/21 05:46:56;;;;;;;12.45;7.97;;;10.90;87.80;;;;;;5046180;28;20103;-61
2022/12/21 05:49:22;;;;;;;9.75;6.30;;;10.90;87.70;;;;;;5036741;28;20493;-58
2022/12/21 05:51:49;;;;;;;16.38;8.75;;;10.90;88.30;;;;;;5028163;28;20060;-59
2022/12/21 05:54:16;;;;;;;13.13;6.93;;;10.90;87.70;;;;;;5038696;28;20518;-62
2022/12/21 05:56:42;;;;;;;10.65;6.00;;;10.90;87.70;;;;;;5048344;28;20143;-61
2022/12/21 05:59:09;;;;;;;11.00;7.82;;;10.90;87.70;;;;;;5046018;28;20025;-61
2022/12/21 06:01:35;;;;;;;14.75;8.05;;;10.90;87.60;;;;;;5050347;28;20037;-59
2022/12/21 06:04:01;;;;;;;14.93;8.75;;;10.90;87.50;;;;;;5049138;28;20414;-61
2022/12/21 06:06:27;;;;;;;14.38;8.00;;;10.90;87.50;;;;;;5057687;28;20104;-61
2022/12/21 06:08:53;;;;;;;16.63;9.20;;;10.90;87.60;;;;;;5039097;28;20029;-61
2022/12/21 06:11:23;;;;;;;16.45;9.38;;;10.90;87.60;;;;;;5039887;28;20113;-61
2022/12/21 06:13:50;;;;;;;12.40;8.43;;;10.90;87.70;;;;;;5046672;28;20488;-61
2022/12/21 06:16:25;;;;;;;11.63;8.20;;;10.90;87.70;;;;;;5053131;28;20131;-61
2022/12/21 06:18:51;;;;;;;17.33;8.90;;;10.90;87.60;;;;;;5047631;28;20029;-61
2022/12/21 06:21:18;;;;;;;10.55;7.93;;;10.90;87.70;;;;;;5051569;28;20033;-61
2022/12/21 06:23:45;;;;;;;14.20;9.20;;;10.90;87.70;;;;;;5049036;28;20632;-61
2022/12/21 06:26:14;;;;;;;10.07;7.15;;;10.90;87.70;;;;;;5051966;28;20067;-61
2022/12/21 06:28:39;;;;;;;11.95;7.15;;;10.90;87.70;;;;;;5047871;28;20040;-61
2022/12/21 06:31:11;;;;;;;11.88;7.45;;;10.90;87.60;;;;;;5047457;28;20036;-61
2022/12/21 06:33:37;;;;;;;12.65;8.52;;;10.90;87.60;;;;;;5041422;28;20513;-59
2022/12/21 06:36:05;;;;;;;11.70;8.00;;;10.90;87.70;;;;;;5041255;28;20491;-58
2022/12/21 06:38:31;;;;;;;12.52;9.32;;;10.90;87.70;;;;;;5048975;28;20504;-59
2022/12/21 06:41:03;;;;;;;14.35;8.40;;;10.90;87.60;;;;;;5046573;28;20032;-59
2022/12/21 06:43:32;;;;;;;15.52;8.30;;;10.90;87.60;;;;;;5038814;28;20096;-59
2022/12/21 06:46:00;;;;;;;13.82;7.57;;;10.90;87.70;;;;;;5044502;28;20071;-59
2022/12/21 06:48:27;;;;;;;13.02;8.95;;;10.90;87.70;;;;;;5061893;28;20025;-59
2022/12/21 06:50:57;;;;;;;13.30;8.95;;;10.90;88.30;;;;;;5048485;28;20029;-61
2022/12/21 06:53:25;;;;;;;12.48;8.05;;;10.90;87.70;;;;;;5041984;28;20091;-61
2022/12/21 06:56:23;;;;;;;12.07;7.68;;;10.90;87.60;;;;;;5054989;28;20100;-61
2022/12/21 06:58:52;;;;;;;10.60;7.82;;;10.90;87.60;;;;;;5032905;28;20040;-61
2022/12/21 07:01:33;;;;;;;12.90;6.72;;;10.90;87.60;;;;;;5044658;28;20029;-62
2022/12/21 07:03:59;;;;;;;15.07;8.15;;;10.90;87.60;;;;;;5045685;28;20472;-62
2022/12/21 07:06:27;;;;;;;16.50;8.63;;;10.90;87.70;;;;;;5046685;28;20021;-62
2022/12/21 07:08:54;;;;;;;11.70;8.82;;;10.80;87.70;;;;;;5042658;28;20039;-61
2022/12/21 07:11:22;;;;;;;15.00;9.80;;;10.80;87.70;;;;;;5036628;28;20045;-61
2022/12/21 07:13:49;;;;;;;18.13;10.98;;;10.80;87.70;;;;;;5045927;28;20344;-62
2022/12/21 07:16:15;;;;;;;13.35;8.10;;;10.80;87.80;;;;;;5044943;28;20471;-61
2022/12/21 07:18:42;;;;;;;15.25;9.45;;;10.70;87.90;;;;;;5041329;28;20025;-60
2022/12/21 07:21:11;;;;;;;17.27;8.52;;;10.70;87.90;;;;;;5045290;28;20116;-59
2022/12/21 07:23:38;;;;;;;14.70;8.57;;;10.70;87.90;;;;;;5038597;28;20495;-61
2022/12/21 07:26:12;;;;;;;15.85;9.30;;;10.70;88.00;;;;;;5039309;28;20564;-58
2022/12/21 07:28:38;;;;;;;15.57;7.93;;;10.70;87.90;;;;;;5044185;28;20103;-62
2022/12/21 07:31:12;;;;;;;14.27;10.45;;;10.70;88.00;;;;;;5045080;28;20025;-62
2022/12/21 07:33:40;;;;;;;19.25;11.15;;;10.70;88.00;;;;;;5054373;28;20537;-62
2022/12/21 07:36:07;;;;;;;17.23;10.07;;;10.60;88.00;;;;;;5042539;28;20029;-61
2022/12/21 07:38:35;;;;;;;15.95;9.38;;;10.70;88.10;;;;;;5043463;28;20059;-59
2022/12/21 07:41:04;;;;;;;15.50;9.32;;;10.70;88.10;;;;;;5043822;28;20017;-59
2022/12/21 07:43:30;;;;;;;11.27;7.47;;;10.70;88.10;;;;;;5041698;28;20079;-60
2022/12/21 07:45:56;;;;;;;14.60;9.57;;;10.70;88.10;;;;;;5049989;28;20427;-59
2022/12/21 07:48:22;;;;;;;14.07;8.70;;;10.60;88.10;;;;;;5044895;28;20025;-59
2022/12/21 07:50:50;;;;;;;10.88;7.28;;;10.60;88.00;;;;;;5045596;28;20567;-59
2022/12/21 07:53:16;;;;;;;13.95;9.25;;;10.60;88.10;;;;;;5038014;28;20054;-59
2022/12/21 07:55:43;;;;;;;12.00;7.43;;;10.70;88.00;;;;;;5042454;28;20082;-59
2022/12/21 07:58:09;;;;;;;12.05;7.63;;;10.60;87.90;;;;;;5040194;28;20025;-59
2022/12/21 08:00:37;;;;;;;12.93;8.02;;;10.60;87.90;;;;;;5049165;28;20028;-59
2022/12/21 08:03:03;;;;;;;12.50;8.15;;;10.60;87.90;;;;;;5038839;28;20033;-58
2022/12/21 08:05:29;;;;;;;14.35;10.38;;;10.60;87.90;;;;;;5040069;28;20083;-60
2022/12/21 08:07:56;;;;;;;12.13;7.50;;;10.60;87.90;;;;;;5046066;28;20037;-59
2022/12/21 08:10:22;;;;;;;25.15;8.88;;;10.60;87.90;;;;;;5046278;28;20046;-60
2022/12/21 08:12:48;;;;;;;14.93;8.15;;;10.60;87.90;;;;;;5050771;28;20029;-61
2022/12/21 08:15:13;;;;;;;15.52;9.18;;;10.60;87.90;;;;;;5050101;28;20021;-61
2022/12/21 08:17:39;;;;;;;18.75;8.25;;;10.60;87.90;;;;;;5053483;28;20036;-63
2022/12/21 08:20:06;;;;;;;14.32;9.60;;;10.50;87.80;;;;;;5051272;28;20068;-60
2022/12/21 08:22:32;;;;;;;11.88;7.32;;;10.50;88.00;;;;;;5046224;28;20060;-62
2022/12/21 08:24:57;;;;;;;19.70;8.35;;;10.50;88.10;;;;;;5049708;28;20064;-61
2022/12/21 08:27:23;;;;;;;14.73;8.20;;;10.50;88.10;;;;;;5048262;28;20053;-60
2022/12/21 08:29:49;;;;;;;16.23;9.23;;;10.40;88.00;;;;;;5040740;28;20021;-65
2022/12/21 08:32:15;;;;;;;17.58;9.63;;;10.50;88.00;;;;;;5044092;28;20389;-63
2022/12/21 08:34:40;;;;;;;13.15;8.23;;;10.50;88.00;;;;;;5038410;28;20468;-63
2022/12/21 08:37:06;;;;;;;13.75;7.88;;;10.40;88.00;;;;;;5040902;28;20022;-59
2022/12/21 08:39:32;;;;;;;8.98;5.78;;;10.50;88.10;;;;;;5032944;28;20033;-59
2022/12/21 08:41:57;;;;;;;11.85;7.32;;;10.50;88.10;;;;;;5027523;28;20044;-62
2022/12/21 08:44:23;;;;;;;12.90;7.40;;;10.50;88.00;;;;;;5025543;28;20430;-62
2022/12/21 08:46:49;;;;;;;11.95;6.53;;;10.50;87.90;;;;;;5037583;28;20052;-62
2022/12/21 08:49:15;;;;;;;12.18;7.60;;;10.50;87.90;;;;;;5042802;28;20079;-62
2022/12/21 08:51:40;;;;;;;16.10;7.78;;;10.50;87.90;;;;;;5041478;28;20028;-62
2022/12/21 08:54:07;;;;;;;11.07;7.03;;;10.50;87.80;;;;;;5047766;28;20069;-62
2022/12/21 08:56:34;;;;;;;11.30;6.78;;;10.60;87.80;;;;;;5037265;28;20048;-62
2022/12/21 08:59:01;;;;;;;12.13;7.30;;;10.60;87.70;;;;;;5045767;28;20116;-62
2022/12/21 09:01:27;;;;;;;11.02;6.30;;;10.50;87.60;;;;;;5038104;28;20615;-62
2022/12/21 09:03:52;;;;;;;10.75;5.90;;;10.50;87.80;;;;;;5043182;28;20132;-62
2022/12/21 09:06:18;;;;;;;10.88;5.50;;;10.50;87.80;;;;;;5035470;28;20524;-62
2022/12/21 09:08:44;;;;;;;8.43;5.28;;;10.50;87.80;;;;;;5047539;28;20112;-62
2022/12/21 09:11:11;;;;;;;10.93;6.43;;;10.60;87.70;;;;;;5037101;28;20037;-62
2022/12/21 09:13:37;;;;;;;10.70;5.22;;;10.60;87.50;;;;;;5041899;28;20064;-59
2022/12/21 09:16:18;;;;;;;14.93;6.80;;;10.60;87.40;;;;;;5042679;28;20086;-59
2022/12/21 09:18:44;;;;;;;9.48;6.18;;;10.60;87.20;;;;;;5040846;28;20116;-59
2022/12/21 09:21:11;;;;;;;9.68;6.85;;;10.50;87.50;;;;;;5040925;28;20075;-59
2022/12/21 09:23:38;;;;;;;7.75;5.53;;;10.60;87.50;;;;;;5041468;28;20124;-62
2022/12/21 09:26:05;;;;;;;6.93;4.53;;;10.60;87.40;;;;;;5038694;28;20498;-62
2022/12/21 09:28:31;;;;;;;9.10;5.70;;;10.70;87.30;;;;;;5041434;28;20029;-62
2022/12/21 09:31:18;;;;;;;11.07;6.03;;;10.70;86.90;;;;;;5044704;28;20037;-59
2022/12/21 09:33:44;;;;;;;9.13;5.63;;;10.60;86.90;;;;;;5043309;28;20045;-59
2022/12/21 09:36:11;;;;;;;8.48;6.15;;;10.60;87.20;;;;;;5049545;28;20029;-59
2022/12/21 09:38:37;;;;;;;13.43;6.00;;;10.60;87.20;;;;;;5043571;28;20060;-62
2022/12/21 09:41:29;;;;;;;10.40;5.88;;;10.60;87.20;;;;;;5047636;28;20028;-59
2022/12/21 09:44:09;;;;;;;9.50;6.28;;;10.60;87.10;;;;;;5026089;28;20515;-59
2022/12/21 09:46:39;;;;;;;12.10;6.53;;;10.50;87.10;;;;;;5042497;28;20029;-59
2022/12/21 09:49:12;;;;;;;10.07;6.57;;;10.50;87.30;;;;;;5051174;28;20028;-62
2022/12/21 09:51:40;;;;;;;10.15;6.70;;;10.50;87.40;;;;;;5049970;28;20024;-59
2022/12/21 09:54:16;;;;;;;10.73;5.43;;;10.50;87.30;;;;;;5042486;28;20049;-62
2022/12/21 09:56:47;;;;;;;7.60;5.00;;;10.50;87.40;;;;;;5035644;28;20033;-62
2022/12/21 09:59:16;;;;;;;8.07;4.13;;;10.50;87.30;;;;;;5053485;28;20024;-62
2022/12/21 10:02:23;;;;;;;10.32;5.00;;;10.50;87.20;;;;;;5037950;28;20373;-62
2022/12/21 10:05:13;;;;;;;8.63;5.10;;;10.60;87.00;;;;;;5036934;28;20027;-62
2022/12/21 10:07:42;;;;;;;8.30;5.93;;;10.70;87.10;;;;;;5036993;28;20105;-62
2022/12/21 10:10:10;;;;;;;9.68;5.47;;;10.70;87.00;;;;;;5039674;28;20024;-59
2022/12/21 10:12:57;;;;;;;6.45;4.72;;;10.60;86.90;;;;;;5041483;28;20072;-62
2022/12/21 10:15:47;;;;;;;10.95;5.35;;;10.60;86.90;;;;;;5040368;28;20025;-59
2022/12/21 10:18:22;;;;;;;8.98;4.80;;;10.60;87.10;;;;;;5043571;28;20476;-62
2022/12/21 10:21:11;;;;;;;8.07;4.88;;;10.70;87.00;;;;;;5037504;28;20017;-62
2022/12/21 10:23:50;;;;;;;5.90;3.47;;;10.70;86.90;;;;;;5039963;28;20048;-62
2022/12/21 10:26:21;;;;;;;8.93;3.60;;;10.70;86.90;;;;;;5043176;28;20061;-62
2022/12/21 10:28:52;;;;;;;8.43;4.20;;;10.70;86.80;;;;;;5032080;28;20115;-59
2022/12/21 10:31:44;;;;;;;9.15;4.57;;;10.70;86.80;;;;;;5037136;28;20445;-62
2022/12/21 10:34:22;;;;;;;6.40;3.42;;;10.70;86.80;;;;;;5041003;28;20060;-62
2022/12/21 10:36:52;;;;;;;7.82;4.38;;;10.70;86.90;;;;;;5047182;28;20036;-58
2022/12/21 10:39:18;;;;;;;6.82;4.72;;;10.70;86.90;;;;;;5037919;28;20356;-59
2022/12/21 10:41:48;;;;;;;10.30;5.57;;;10.60;86.80;;;;;;5038594;28;20029;-59
2022/12/21 10:44:14;;;;;;;5.65;3.90;;;10.60;87.00;;;;;;5046772;28;20068;-59
2022/12/21 10:46:40;;;;;;;8.52;5.20;;;10.60;87.10;;;;;;5037108;28;20388;-62
2022/12/21 10:49:24;;;;;;;9.75;5.10;;;10.60;87.00;;;;;;5047614;28;20013;-59
2022/12/21 10:51:49;;;;;;;11.18;4.15;;;10.60;87.10;;;;;;5036288;28;20028;-62
2022/12/21 10:54:25;;;;;;;8.40;4.72;;;10.60;87.10;;;;;;5043968;28;20044;-62
2022/12/21 10:56:52;;;;;;;6.63;4.75;;;10.60;87.00;;;;;;5034590;28;20532;-62
2022/12/21 10:59:29;;;;;;;6.78;4.60;;;10.60;87.00;;;;;;5040497;28;20127;-62
2022/12/21 11:01:55;;;;;;;10.38;5.25;;;10.60;86.90;;;;;;5037612;28;20033;-59
2022/12/21 11:04:21;;;;;;;20.83;6.18;;;10.50;87.00;;;;;;5043410;28;20053;-59
2022/12/21 11:07:02;;;;;;;9.02;4.43;;;10.50;87.10;;;;;;5035252;28;20060;-59
2022/12/21 11:09:39;;;;;;;7.30;4.72;;;10.50;87.10;;;;;;5036454;28;20027;-59
2022/12/21 11:12:18;;;;;;;8.98;5.18;;;10.60;87.20;;;;;;5034469;28;20025;-59
2022/12/21 11:14:43;;;;;;;6.25;4.65;;;10.60;87.20;;;;;;5034803;28;20492;-59
2022/12/21 11:17:23;;;;;;;8.38;4.57;;;10.50;87.10;;;;;;5031683;28;20055;-59
2022/12/21 11:19:56;;;;;;;8.68;4.82;;;10.60;87.20;;;;;;5037147;28;20404;-59
2022/12/21 11:22:28;;;;;;;15.05;6.05;;;10.60;87.20;;;;;;5035056;28;20073;-62
2022/12/21 11:24:56;;;;;;;11.63;5.80;;;10.60;87.20;;;;;;5030715;28;20183;-62
2022/12/21 11:27:33;;;;;;;10.65;6.45;;;10.70;87.10;;;;;;5034445;28;20032;-62
2022/12/21 11:30:19;;;;;;;9.90;6.05;;;10.80;86.70;;;;;;5026559;28;20325;-62
2022/12/21 11:32:47;;;;;;;10.18;6.30;;;10.90;86.70;;;;;;5033780;28;20135;-62
2022/12/21 11:35:23;;;;;;;11.25;4.90;;;11.10;86.40;;;;;;5040015;28;20066;-62
2022/12/21 11:37:56;;;;;;;8.70;5.55;;;11.10;86.20;;;;;;5042380;28;20029;-59
2022/12/21 11:40:22;;;;;;;9.27;6.50;;;11.30;86.10;;;;;;5035844;28;20028;-59
2022/12/21 11:43:00;;;;;;;18.25;7.15;;;11.40;85.80;;;;;;5035117;28;20432;-60
2022/12/21 11:45:54;;;;;;;13.93;7.82;;;11.50;85.60;;;;;;5033840;28;20502;-62
2022/12/21 11:48:43;;;;;;;14.20;7.47;;;11.80;84.80;;;;;;5031015;28;20052;-62
2022/12/21 11:51:42;;;;;;;18.23;8.07;;;12.00;84.20;;;;;;5035540;28;20037;-62
2022/12/21 11:54:36;;;;;;;12.82;7.97;;;11.90;83.70;;;;;;5037460;28;20116;-59
2022/12/21 11:57:53;;;;;;;14.13;7.85;;;11.80;84.20;;;;;;5041437;28;20529;-61
2022/12/21 12:00:22;;;;;;;13.88;8.18;;;11.70;84.30;;;;;;5020817;28;20133;-59
2022/12/21 12:03:19;;;;;;;11.82;7.57;;;11.50;84.70;;;;;;5035325;28;21769;-61
2022/12/21 12:06:12;;;;;;;11.23;6.93;;;11.50;84.60;;;;;;5037819;28;20036;-61
2022/12/21 12:09:10;;;;;;;12.25;6.63;;;11.40;84.90;;;;;;5039650;28;20037;-61
2022/12/21 12:11:55;;;;;;;13.68;6.63;;;11.40;85.00;;;;;;5030688;28;20036;-59
2022/12/21 12:14:51;;;;;;;8.30;5.93;;;11.40;85.00;;;;;;5041190;28;20033;-59
2022/12/21 12:17:29;;;;;;;9.93;7.22;;;11.40;85.00;;;;;;5032522;28;20063;-59
2022/12/21 12:20:22;;;;;;;11.50;6.22;;;11.30;85.00;;;;;;5035686;28;20420;-59
2022/12/21 12:23:35;;;;;;;9.20;5.72;;;11.30;85.00;;;;;;5035786;28;20092;-59
2022/12/21 12:26:04;;;;;;;10.50;5.20;;;11.20;85.10;;;;;;5040421;28;20056;-63
2022/12/21 12:28:35;;;;;;;11.43;4.93;;;11.10;85.40;;;;;;5035689;28;20513;-62
2022/12/21 12:31:26;;;;;;;15.50;5.43;;;11.20;85.50;;;;;;5034534;28;20391;-63
2022/12/21 12:34:10;;;;;;;6.85;4.25;;;11.10;85.00;;;;;;5046569;28;20037;-60
2022/12/21 12:36:57;;;;;;;6.90;4.18;;;11.00;85.20;;;;;;5038255;28;20029;-58
2022/12/21 12:39:26;;;;;;;8.32;4.07;;;11.00;85.30;;;;;;5048124;28;20025;-58
2022/12/21 12:42:11;;;;;;;7.03;4.75;;;11.00;85.40;;;;;;5043560;28;20116;-58
2022/12/21 12:45:09;;;;;;;7.38;4.50;;;11.10;85.10;;;;;;5048397;28;20025;-59
2022/12/21 12:47:41;;;;;;;7.82;4.20;;;11.00;85.10;;;;;;5049349;28;20017;-58
2022/12/21 12:50:17;;;;;;;8.18;4.30;;;11.00;85.90;;;;;;5042005;28;20666;-58
2022/12/21 12:52:55;;;;;;;12.25;4.68;;;11.00;85.20;;;;;;5049919;28;20383;-58
2022/12/21 12:55:39;;;;;;;7.60;4.00;;;11.00;85.30;;;;;;5050013;28;20029;-58
2022/12/21 12:58:26;;;;;;;5.97;3.00;;;11.00;85.10;;;;;;5048240;28;20032;-59
2022/12/21 13:01:28;;;;;;;5.88;4.57;;;11.00;85.10;;;;;;5045911;28;20029;-61
2022/12/21 13:04:33;;;;;;;8.30;4.00;;;11.00;85.00;;;;;;5046448;28;20045;-59
2022/12/21 13:07:17;;;;;;;7.80;4.00;;;11.00;85.00;;;;;;5049390;28;20037;-61
2022/12/21 13:10:04;;;;;;;6.97;4.63;;;11.00;85.10;;;;;;5046403;28;20033;-61
2022/12/21 13:12:36;;;;;;;14.52;5.85;;;11.00;84.90;;;;;;5050165;28;20037;-61
2022/12/21 13:15:10;;;;;;;13.02;5.13;;;10.90;84.90;;;;;;5047800;28;20013;-61